This is the latest recevied weather packets stored in our database for station/object AC4AG. If no packets are shown the sender has not sent any weather packets the latest 10 day(s).
| Time | Temp. | Humidity | Pressure | Rain* | Wind** | Luminosity | Snow |
|---|---|---|---|---|---|---|---|
| 1777225942 | 20.56° C | 67% | 1015 hPa | 0 mm | - | 908 W/m² | - |
| 1777225638 | 20° C | 68% | 1015.1 hPa | 0 mm | - | 907 W/m² | - |
| 1777225335 | 20° C | 67% | 1015.2 hPa | 0 mm | - | 903 W/m² | - |
| 1777225032 | 19.44° C | 69% | 1015 hPa | 0 mm | - | 897 W/m² | - |
| 1777224729 | 19.44° C | 72% | 1015.1 hPa | 0 mm | - | 888 W/m² | - |
| 1777224424 | 18.89° C | 72% | 1015.1 hPa | 0 mm | - | 889 W/m² | - |
| 1777224120 | 19.44° C | 72% | 1015.2 hPa | 0 mm | - | 891 W/m² | - |
| 1777223817 | 18.89° C | 72% | 1015.2 hPa | 0 mm | - | 888 W/m² | - |
| 1777223513 | 19.44° C | 73% | 1015.2 hPa | 0 mm | - | 880 W/m² | - |
| 1777223211 | 18.89° C | 73% | 1015.4 hPa | 0 mm | - | 885 W/m² | - |
| 1777222908 | 18.33° C | 77% | 1015.7 hPa | 0 mm | - | 883 W/m² | - |
| 1777222605 | 18.33° C | 76% | 1015.5 hPa | 0 mm | - | 872 W/m² | - |
| 1777222303 | 18.89° C | 77% | 1015.5 hPa | 0 mm | - | 878 W/m² | - |
| 1777222001 | 18.33° C | 79% | 1015.5 hPa | 0 mm | - | 859 W/m² | - |
| 1777221697 | 17.78° C | 79% | 1015.6 hPa | 0 mm | - | 859 W/m² | - |
| 1777221393 | 17.78° C | 81% | 1015.7 hPa | 0 mm | - | 851 W/m² | - |
| 1777221091 | 17.78° C | 80% | 1015.7 hPa | 0 mm | - | 861 W/m² | - |
| 1777220791 | 16.67° C | 83% | 1015.6 hPa | 0 mm | - | 756 W/m² | - |
| 1777220487 | 17.22° C | 81% | 1015.7 hPa | 0 mm | - | 833 W/m² | - |
| 1777220182 | 16.67° C | 83% | 1015.8 hPa | 0 mm | - | 311 W/m² | - |
| 1777219879 | 16.11° C | 84% | 1015.6 hPa | 0 mm | - | 467 W/m² | - |
| 1777219576 | 17.22° C | 81% | 1015.7 hPa | 0 mm | - | 255 W/m² | - |
| 1777219273 | 17.22° C | 81% | 1015.7 hPa | 0 mm | - | 378 W/m² | - |
| 1777218969 | 17.78° C | 80% | 1015.8 hPa | 0 mm | - | 1041 W/m² | - |
| 1777218664 | 17.22° C | 82% | 1015.8 hPa | 0 mm | - | 1004 W/m² | - |
* Rain latest hour (hover to see other rain measurements)
** Current wind speed in m/s (hover to see current wind gust speed)